sensor_id;sensor_type;location;lat;lon;timestamp;pressure;altitude;pressure_sealevel;temperature;humidity
48404;BME280;34202;52.536;6.042;2023-05-25T00:03:37;102751.48;;;9.47;89.30
48404;BME280;34202;52.536;6.042;2023-05-25T00:08:39;102750.83;;;9.43;89.60
48404;BME280;34202;52.536;6.042;2023-05-25T00:13:39;102747.80;;;9.38;90.02
48404;BME280;34202;52.536;6.042;2023-05-25T00:18:40;102744.58;;;9.32;90.27
48404;BME280;34202;52.536;6.042;2023-05-25T00:23:41;102747.48;;;9.26;90.64
48404;BME280;34202;52.536;6.042;2023-05-25T00:28:41;102749.86;;;9.21;90.88
48404;BME280;34202;52.536;6.042;2023-05-25T00:33:42;102759.55;;;9.16;91.17
48404;BME280;34202;52.536;6.042;2023-05-25T00:38:42;102756.02;;;9.10;91.49
48404;BME280;34202;52.536;6.042;2023-05-25T00:43:46;102755.80;;;9.09;91.85
48404;BME280;34202;52.536;6.042;2023-05-25T00:48:46;102761.46;;;9.12;91.90
48404;BME280;34202;52.536;6.042;2023-05-25T00:53:47;102760.59;;;9.12;92.22
48404;BME280;34202;52.536;6.042;2023-05-25T00:58:50;102757.88;;;9.14;92.20
48404;BME280;34202;52.536;6.042;2023-05-25T01:03:54;102760.52;;;9.15;92.39
48404;BME280;34202;52.536;6.042;2023-05-25T01:09:00;102768.75;;;9.16;92.49
48404;BME280;34202;52.536;6.042;2023-05-25T01:14:02;102774.31;;;9.16;92.45
48404;BME280;34202;52.536;6.042;2023-05-25T01:19:03;102769.39;;;9.15;92.56
48404;BME280;34202;52.536;6.042;2023-05-25T01:29:32;102776.60;;;9.08;92.26
48404;BME280;34202;52.536;6.042;2023-05-25T01:34:34;102776.80;;;9.05;92.15
48404;BME280;34202;52.536;6.042;2023-05-25T01:39:35;102780.85;;;9.02;92.62
48404;BME280;34202;52.536;6.042;2023-05-25T01:44:37;102776.33;;;8.98;92.70
48404;BME280;34202;52.536;6.042;2023-05-25T01:49:59;102775.02;;;8.92;92.92
48404;BME280;34202;52.536;6.042;2023-05-25T01:55:07;102779.30;;;8.79;93.31
48404;BME280;34202;52.536;6.042;2023-05-25T02:00:11;102777.59;;;8.72;93.77
48404;BME280;34202;52.536;6.042;2023-05-25T02:05:12;102777.05;;;8.68;94.01
48404;BME280;34202;52.536;6.042;2023-05-25T02:10:13;102774.23;;;8.67;94.12
48404;BME280;34202;52.536;6.042;2023-05-25T02:15:14;102776.27;;;8.65;94.15
48404;BME280;34202;52.536;6.042;2023-05-25T02:20:15;102784.69;;;8.64;94.13
48404;BME280;34202;52.536;6.042;2023-05-25T02:25:16;102795.85;;;8.61;94.19
48404;BME280;34202;52.536;6.042;2023-05-25T02:30:16;102794.52;;;8.59;94.31
48404;BME280;34202;52.536;6.042;2023-05-25T02:35:16;102796.81;;;8.56;94.10
48404;BME280;34202;52.536;6.042;2023-05-25T02:40:17;102795.59;;;8.52;94.16
48404;BME280;34202;52.536;6.042;2023-05-25T02:45:17;102798.73;;;8.48;94.23
48404;BME280;34202;52.536;6.042;2023-05-25T02:50:17;102798.35;;;8.44;94.21
48404;BME280;34202;52.536;6.042;2023-05-25T02:55:18;102803.88;;;8.41;94.32
48404;BME280;34202;52.536;6.042;2023-05-25T03:00:18;102812.02;;;8.36;94.15
48404;BME280;34202;52.536;6.042;2023-05-25T03:05:19;102814.02;;;8.31;94.25
48404;BME280;34202;52.536;6.042;2023-05-25T03:10:20;102813.47;;;8.27;94.29
48404;BME280;34202;52.536;6.042;2023-05-25T03:15:20;102812.58;;;8.22;94.21
48404;BME280;34202;52.536;6.042;2023-05-25T03:20:22;102813.91;;;8.18;94.38
48404;BME280;34202;52.536;6.042;2023-05-25T03:25:23;102814.20;;;8.13;94.62
48404;BME280;34202;52.536;6.042;2023-05-25T03:30:24;102813.98;;;8.09;94.48
48404;BME280;34202;52.536;6.042;2023-05-25T03:35:24;102815.56;;;8.05;94.48
48404;BME280;34202;52.536;6.042;2023-05-25T03:40:25;102817.96;;;8.01;94.40
48404;BME280;34202;52.536;6.042;2023-05-25T03:45:25;102824.03;;;7.98;94.40
48404;BME280;34202;52.536;6.042;2023-05-25T03:50:26;102825.27;;;7.94;94.94
48404;BME280;34202;52.536;6.042;2023-05-25T03:55:26;102830.48;;;7.91;95.17
48404;BME280;34202;52.536;6.042;2023-05-25T04:00:27;102834.70;;;7.89;95.23
48404;BME280;34202;52.536;6.042;2023-05-25T04:05:27;102833.16;;;7.86;95.46
48404;BME280;34202;52.536;6.042;2023-05-25T04:10:28;102831.16;;;7.84;95.55
48404;BME280;34202;52.536;6.042;2023-05-25T04:15:28;102830.07;;;7.83;96.09
48404;BME280;34202;52.536;6.042;2023-05-25T04:20:29;102835.41;;;7.82;96.02
48404;BME280;34202;52.536;6.042;2023-05-25T04:25:29;102834.53;;;7.83;96.41
48404;BME280;34202;52.536;6.042;2023-05-25T04:30:31;102834.38;;;7.83;96.46
48404;BME280;34202;52.536;6.042;2023-05-25T04:35:31;102834.63;;;7.84;97.00
48404;BME280;34202;52.536;6.042;2023-05-25T04:40:33;102832.60;;;7.85;97.64
48404;BME280;34202;52.536;6.042;2023-05-25T04:45:34;102832.36;;;7.87;97.75
48404;BME280;34202;52.536;6.042;2023-05-25T04:50:35;102832.34;;;7.90;98.10
48404;BME280;34202;52.536;6.042;2023-05-25T04:55:36;102837.58;;;7.95;98.52
48404;BME280;34202;52.536;6.042;2023-05-25T05:00:37;102843.14;;;7.98;98.75
48404;BME280;34202;52.536;6.042;2023-05-25T05:05:39;102854.35;;;8.04;99.70
48404;BME280;34202;52.536;6.042;2023-05-25T05:10:39;102860.45;;;8.12;100.00
48404;BME280;34202;52.536;6.042;2023-05-25T05:15:40;102866.90;;;8.20;100.00
48404;BME280;34202;52.536;6.042;2023-05-25T05:20:40;102874.52;;;8.27;100.00
48404;BME280;34202;52.536;6.042;2023-05-25T05:25:41;102880.09;;;8.34;100.00
48404;BME280;34202;52.536;6.042;2023-05-25T05:30:41;102888.94;;;8.45;100.00
48404;BME280;34202;52.536;6.042;2023-05-25T05:35:43;102886.96;;;8.61;100.00
48404;BME280;34202;52.536;6.042;2023-05-25T05:40:44;102890.70;;;8.78;100.00
48404;BME280;34202;52.536;6.042;2023-05-25T05:45:44;102895.71;;;8.92;100.00
48404;BME280;34202;52.536;6.042;2023-05-25T05:50:44;102900.64;;;9.09;100.00
48404;BME280;34202;52.536;6.042;2023-05-25T05:55:45;102902.90;;;9.28;100.00
48404;BME280;34202;52.536;6.042;2023-05-25T06:00:45;102906.85;;;9.51;100.00
48404;BME280;34202;52.536;6.042;2023-05-25T06:05:46;102913.71;;;9.76;100.00
48404;BME280;34202;52.536;6.042;2023-05-25T06:10:46;102919.87;;;9.99;100.00
48404;BME280;34202;52.536;6.042;2023-05-25T06:15:47;102915.25;;;10.21;100.00
48404;BME280;34202;52.536;6.042;2023-05-25T06:20:47;102915.54;;;10.40;100.00
48404;BME280;34202;52.536;6.042;2023-05-25T06:25:47;102919.59;;;10.68;100.00
48404;BME280;34202;52.536;6.042;2023-05-25T06:30:48;102916.02;;;10.97;100.00
48404;BME280;34202;52.536;6.042;2023-05-25T06:35:49;102921.52;;;11.18;100.00
48404;BME280;34202;52.536;6.042;2023-05-25T06:40:49;102920.70;;;11.34;100.00
48404;BME280;34202;52.536;6.042;2023-05-25T06:45:50;102919.95;;;11.47;100.00
48404;BME280;34202;52.536;6.042;2023-05-25T06:50:50;102925.61;;;11.68;100.00
48404;BME280;34202;52.536;6.042;2023-05-25T06:55:50;102931.38;;;11.93;100.00
48404;BME280;34202;52.536;6.042;2023-05-25T07:00:51;102931.66;;;12.16;100.00
48404;BME280;34202;52.536;6.042;2023-05-25T07:05:54;102937.93;;;12.38;100.00
48404;BME280;34202;52.536;6.042;2023-05-25T07:10:55;102942.70;;;12.61;100.00
48404;BME280;34202;52.536;6.042;2023-05-25T07:15:55;102940.90;;;12.82;100.00
48404;BME280;34202;52.536;6.042;2023-05-25T07:20:55;102942.83;;;13.05;100.00
48404;BME280;34202;52.536;6.042;2023-05-25T07:25:56;102941.66;;;13.30;100.00
48404;BME280;34202;52.536;6.042;2023-05-25T07:30:56;102946.16;;;13.52;99.83
48404;BME280;34202;52.536;6.042;2023-05-25T07:35:56;102951.90;;;13.76;99.77
48404;BME280;34202;52.536;6.042;2023-05-25T07:40:57;102963.02;;;14.00;97.60
48404;BME280;34202;52.536;6.042;2023-05-25T07:45:57;102969.75;;;14.16;95.54
48404;BME280;34202;52.536;6.042;2023-05-25T07:50:57;102970.08;;;14.22;93.14
48404;BME280;34202;52.536;6.042;2023-05-25T07:55:58;102976.02;;;14.28;91.94
48404;BME280;34202;52.536;6.042;2023-05-25T08:00:58;102981.58;;;14.40;91.53
48404;BME280;34202;52.536;6.042;2023-05-25T08:05:59;102982.92;;;14.45;89.93
48404;BME280;34202;52.536;6.042;2023-05-25T08:10:59;102983.48;;;14.47;89.06
48404;BME280;34202;52.536;6.042;2023-05-25T08:16:00;102988.27;;;14.49;88.74
48404;BME280;34202;52.536;6.042;2023-05-25T08:21:01;102991.77;;;14.48;87.72
48404;BME280;34202;52.536;6.042;2023-05-25T08:26:01;102995.55;;;14.59;87.54
48404;BME280;34202;52.536;6.042;2023-05-25T08:31:02;102999.94;;;14.74;87.41
48404;BME280;34202;52.536;6.042;2023-05-25T08:36:03;103007.00;;;14.83;86.40
48404;BME280;34202;52.536;6.042;2023-05-25T08:41:05;103010.75;;;14.93;85.37
48404;BME280;34202;52.536;6.042;2023-05-25T08:46:07;103024.05;;;15.00;83.65
48404;BME280;34202;52.536;6.042;2023-05-25T08:51:09;103018.66;;;15.02;82.81
48404;BME280;34202;52.536;6.042;2023-05-25T08:56:15;103013.50;;;15.14;83.55
48404;BME280;34202;52.536;6.042;2023-05-25T09:01:19;103016.48;;;15.30;83.18
48404;BME280;34202;52.536;6.042;2023-05-25T09:06:23;103020.55;;;15.40;82.03
48404;BME280;34202;52.536;6.042;2023-05-25T09:11:26;103018.17;;;15.43;81.24
48404;BME280;34202;52.536;6.042;2023-05-25T09:16:29;103023.20;;;15.41;80.39
48404;BME280;34202;52.536;6.042;2023-05-25T09:21:30;103027.14;;;15.28;79.04
48404;BME280;34202;52.536;6.042;2023-05-25T09:26:31;103029.77;;;15.28;79.86
48404;BME280;34202;52.536;6.042;2023-05-25T09:31:31;103035.07;;;15.30;79.53
48404;BME280;34202;52.536;6.042;2023-05-25T09:36:33;103033.41;;;15.26;79.19
48404;BME280;34202;52.536;6.042;2023-05-25T09:41:35;103036.75;;;15.35;79.85
48404;BME280;34202;52.536;6.042;2023-05-25T09:46:36;103044.45;;;15.33;78.54
48404;BME280;34202;52.536;6.042;2023-05-25T09:51:38;103036.52;;;15.32;78.98
48404;BME280;34202;52.536;6.042;2023-05-25T09:56:40;103043.24;;;15.34;78.74
48404;BME280;34202;52.536;6.042;2023-05-25T10:01:40;103042.17;;;15.34;78.66
48404;BME280;34202;52.536;6.042;2023-05-25T10:06:44;103043.91;;;15.41;79.08
48404;BME280;34202;52.536;6.042;2023-05-25T10:11:50;103043.07;;;15.51;79.40
48404;BME280;34202;52.536;6.042;2023-05-25T10:16:52;103043.16;;;15.64;78.69
48404;BME280;34202;52.536;6.042;2023-05-25T10:22:34;103042.11;;;15.80;78.10
48404;BME280;34202;52.536;6.042;2023-05-25T10:27:40;103046.14;;;15.88;77.00
48404;BME280;34202;52.536;6.042;2023-05-25T10:32:43;103047.71;;;15.87;76.19
48404;BME280;34202;52.536;6.042;2023-05-25T10:37:44;103055.30;;;15.73;75.15
48404;BME280;34202;52.536;6.042;2023-05-25T10:42:46;103061.56;;;15.55;75.68
48404;BME280;34202;52.536;6.042;2023-05-25T10:47:46;103058.10;;;15.48;75.76
48404;BME280;34202;52.536;6.042;2023-05-25T10:52:59;103056.64;;;15.45;75.88
48404;BME280;34202;52.536;6.042;2023-05-25T10:58:11;103054.48;;;15.51;75.93
48404;BME280;34202;52.536;6.042;2023-05-25T11:03:12;103054.05;;;15.56;74.92
48404;BME280;34202;52.536;6.042;2023-05-25T11:08:12;103050.48;;;15.69;74.33
48404;BME280;34202;52.536;6.042;2023-05-25T11:18:22;103040.35;;;15.98;74.42
48404;BME280;34202;52.536;6.042;2023-05-25T11:23:38;103036.30;;;16.34;74.21
48404;BME280;34202;52.536;6.042;2023-05-25T11:28:52;103041.81;;;16.49;71.97
48404;BME280;34202;52.536;6.042;2023-05-25T11:37:20;103039.91;;;16.51;69.96
48404;BME280;34202;52.536;6.042;2023-05-25T11:42:24;103032.05;;;16.54;69.36
48404;BME280;34202;52.536;6.042;2023-05-25T11:47:25;103024.00;;;16.87;69.86
48404;BME280;34202;52.536;6.042;2023-05-25T11:52:27;103025.14;;;17.04;68.47
48404;BME280;34202;52.536;6.042;2023-05-25T11:57:27;103025.15;;;17.04;67.81
48404;BME280;34202;52.536;6.042;2023-05-25T12:02:36;103021.35;;;17.09;66.80
48404;BME280;34202;52.536;6.042;2023-05-25T12:07:44;103021.93;;;17.14;65.36
48404;BME280;34202;52.536;6.042;2023-05-25T12:12:50;103018.55;;;17.22;65.17
48404;BME280;34202;52.536;6.042;2023-05-25T12:17:51;103011.19;;;17.39;65.05
48404;BME280;34202;52.536;6.042;2023-05-25T12:22:52;103003.45;;;17.53;64.48
48404;BME280;34202;52.536;6.042;2023-05-25T12:28:12;103009.16;;;17.59;63.01
48404;BME280;34202;52.536;6.042;2023-05-25T12:33:13;103001.99;;;17.65;62.81
48404;BME280;34202;52.536;6.042;2023-05-25T12:38:19;103002.23;;;17.68;62.30
48404;BME280;34202;52.536;6.042;2023-05-25T12:43:20;103002.95;;;17.85;61.64
48404;BME280;34202;52.536;6.042;2023-05-25T12:48:27;103003.39;;;17.91;60.25
48404;BME280;34202;52.536;6.042;2023-05-25T12:53:27;102995.81;;;17.92;60.38
48404;BME280;34202;52.536;6.042;2023-05-25T12:58:30;102999.27;;;17.86;59.24
48404;BME280;34202;52.536;6.042;2023-05-25T13:03:30;102995.89;;;17.85;59.07
48404;BME280;34202;52.536;6.042;2023-05-25T13:08:31;102993.58;;;17.83;57.84
48404;BME280;34202;52.536;6.042;2023-05-25T13:13:31;102985.79;;;17.80;57.64
48404;BME280;34202;52.536;6.042;2023-05-25T13:18:31;102983.98;;;17.76;57.26
48404;BME280;34202;52.536;6.042;2023-05-25T13:23:32;102986.54;;;17.68;57.12
48404;BME280;34202;52.536;6.042;2023-05-25T13:28:32;102982.91;;;17.73;57.74
48404;BME280;34202;52.536;6.042;2023-05-25T13:33:32;102977.27;;;17.74;56.36
48404;BME280;34202;52.536;6.042;2023-05-25T13:38:34;102971.55;;;17.81;57.32
48404;BME280;34202;52.536;6.042;2023-05-25T13:43:35;102976.93;;;17.89;56.73
48404;BME280;34202;52.536;6.042;2023-05-25T13:48:35;102967.45;;;17.92;57.22
48404;BME280;34202;52.536;6.042;2023-05-25T13:53:36;102970.09;;;17.92;56.49
48404;BME280;34202;52.536;6.042;2023-05-25T13:58:36;102970.05;;;17.86;55.96
48404;BME280;34202;52.536;6.042;2023-05-25T14:03:37;102969.25;;;17.80;55.20
48404;BME280;34202;52.536;6.042;2023-05-25T14:08:38;102960.36;;;17.73;55.50
48404;BME280;34202;52.536;6.042;2023-05-25T14:13:38;102957.75;;;17.76;55.53
48404;BME280;34202;52.536;6.042;2023-05-25T14:18:38;102954.73;;;17.73;55.38
48404;BME280;34202;52.536;6.042;2023-05-25T14:23:39;102954.83;;;17.67;55.52
48404;BME280;34202;52.536;6.042;2023-05-25T14:28:39;102950.63;;;17.53;54.92
48404;BME280;34202;52.536;6.042;2023-05-25T14:33:40;102949.16;;;17.47;55.38
48404;BME280;34202;52.536;6.042;2023-05-25T14:38:40;102948.20;;;17.56;55.45
48404;BME280;34202;52.536;6.042;2023-05-25T14:43:41;102951.71;;;17.55;55.74
48404;BME280;34202;52.536;6.042;2023-05-25T14:48:41;102953.64;;;17.54;55.81
48404;BME280;34202;52.536;6.042;2023-05-25T14:53:41;102956.83;;;17.55;56.02
48404;BME280;34202;52.536;6.042;2023-05-25T14:58:42;102953.48;;;17.56;55.90
48404;BME280;34202;52.536;6.042;2023-05-25T15:03:42;102952.45;;;17.58;55.88
48404;BME280;34202;52.536;6.042;2023-05-25T15:08:42;102956.39;;;17.49;55.60
48404;BME280;34202;52.536;6.042;2023-05-25T15:13:43;102954.44;;;17.47;55.88
48404;BME280;34202;52.536;6.042;2023-05-25T15:18:44;102951.88;;;17.38;55.60
48404;BME280;34202;52.536;6.042;2023-05-25T15:23:44;102955.45;;;17.29;55.73
48404;BME280;34202;52.536;6.042;2023-05-25T15:28:45;102958.16;;;17.21;55.53
48404;BME280;34202;52.536;6.042;2023-05-25T15:33:45;102961.38;;;17.10;55.25
48404;BME280;34202;52.536;6.042;2023-05-25T15:38:48;102965.86;;;17.04;55.75
48404;BME280;34202;52.536;6.042;2023-05-25T15:43:51;102963.55;;;17.02;55.45
48404;BME280;34202;52.536;6.042;2023-05-25T15:48:53;102960.77;;;16.81;54.99
48404;BME280;34202;52.536;6.042;2023-05-25T15:53:53;102967.67;;;16.61;55.21
48404;BME280;34202;52.536;6.042;2023-05-25T15:58:54;102962.61;;;16.42;55.51
48404;BME280;34202;52.536;6.042;2023-05-25T16:03:54;102969.82;;;16.31;55.83
48404;BME280;34202;52.536;6.042;2023-05-25T16:08:55;102962.96;;;16.21;56.39
48404;BME280;34202;52.536;6.042;2023-05-25T16:13:57;102972.86;;;16.14;56.85
48404;BME280;34202;52.536;6.042;2023-05-25T16:18:58;102967.38;;;16.01;56.87
48404;BME280;34202;52.536;6.042;2023-05-25T16:23:58;102963.31;;;15.91;57.55
48404;BME280;34202;52.536;6.042;2023-05-25T16:28:58;102968.75;;;15.90;58.04
48404;BME280;34202;52.536;6.042;2023-05-25T16:33:59;102969.81;;;15.82;58.35
48404;BME280;34202;52.536;6.042;2023-05-25T16:39:01;102968.23;;;15.73;58.52
48404;BME280;34202;52.536;6.042;2023-05-25T16:44:02;102961.38;;;15.64;58.79
48404;BME280;34202;52.536;6.042;2023-05-25T16:49:02;102965.66;;;15.50;58.80
48404;BME280;34202;52.536;6.042;2023-05-25T16:54:03;102968.08;;;15.39;59.55
48404;BME280;34202;52.536;6.042;2023-05-25T16:59:03;102973.95;;;15.26;59.87
48404;BME280;34202;52.536;6.042;2023-05-25T17:04:04;102974.42;;;15.16;60.20
48404;BME280;34202;52.536;6.042;2023-05-25T17:09:04;102982.98;;;15.05;60.26
48404;BME280;34202;52.536;6.042;2023-05-25T17:14:05;102980.34;;;14.90;60.48
48404;BME280;34202;52.536;6.042;2023-05-25T17:19:05;102985.39;;;14.81;61.07
48404;BME280;34202;52.536;6.042;2023-05-25T17:24:06;102988.89;;;14.66;61.24
48404;BME280;34202;52.536;6.042;2023-05-25T17:29:06;102988.88;;;14.58;61.72
48404;BME280;34202;52.536;6.042;2023-05-25T17:34:07;102992.85;;;14.50;61.75
48404;BME280;34202;52.536;6.042;2023-05-25T17:39:07;102999.48;;;14.42;61.90
48404;BME280;34202;52.536;6.042;2023-05-25T17:44:08;103000.85;;;14.33;62.41
48404;BME280;34202;52.536;6.042;2023-05-25T17:49:08;103000.85;;;14.20;62.52
48404;BME280;34202;52.536;6.042;2023-05-25T17:54:08;103003.67;;;14.07;63.19
48404;BME280;34202;52.536;6.042;2023-05-25T17:59:14;103009.21;;;13.99;63.53
48404;BME280;34202;52.536;6.042;2023-05-25T18:04:14;103013.55;;;13.90;64.01
48404;BME280;34202;52.536;6.042;2023-05-25T18:09:15;103015.02;;;13.87;64.63
48404;BME280;34202;52.536;6.042;2023-05-25T18:14:15;103009.85;;;13.84;64.74
48404;BME280;34202;52.536;6.042;2023-05-25T18:19:16;103005.68;;;13.78;64.68
48404;BME280;34202;52.536;6.042;2023-05-25T18:24:19;103012.75;;;13.68;65.08
48404;BME280;34202;52.536;6.042;2023-05-25T18:29:19;103012.38;;;13.56;65.56
48404;BME280;34202;52.536;6.042;2023-05-25T18:34:20;103017.16;;;13.46;65.84
48404;BME280;34202;52.536;6.042;2023-05-25T18:39:20;103026.19;;;13.32;66.06
48404;BME280;34202;52.536;6.042;2023-05-25T18:44:21;103025.44;;;13.14;66.55
48404;BME280;34202;52.536;6.042;2023-05-25T18:49:21;103030.10;;;13.01;67.16
48404;BME280;34202;52.536;6.042;2023-05-25T18:54:23;103032.45;;;12.86;67.68
48404;BME280;34202;52.536;6.042;2023-05-25T18:59:23;103038.52;;;12.74;68.22
48404;BME280;34202;52.536;6.042;2023-05-25T19:04:24;103040.23;;;12.63;68.81
48404;BME280;34202;52.536;6.042;2023-05-25T19:09:24;103041.94;;;12.50;69.39
48404;BME280;34202;52.536;6.042;2023-05-25T19:14:25;103040.21;;;12.36;69.69
48404;BME280;34202;52.536;6.042;2023-05-25T19:19:25;103039.96;;;12.24;70.11
48404;BME280;34202;52.536;6.042;2023-05-25T19:24:26;103043.45;;;12.09;70.44
48404;BME280;34202;52.536;6.042;2023-05-25T19:29:26;103046.45;;;11.95;70.85
48404;BME280;34202;52.536;6.042;2023-05-25T19:34:26;103043.73;;;11.84;71.27
48404;BME280;34202;52.536;6.042;2023-05-25T19:39:27;103045.02;;;11.71;71.67
48404;BME280;34202;52.536;6.042;2023-05-25T19:44:29;103050.03;;;11.60;72.06
48404;BME280;34202;52.536;6.042;2023-05-25T19:49:30;103051.48;;;11.49;72.38
48404;BME280;34202;52.536;6.042;2023-05-25T19:54:31;103065.02;;;11.33;72.89
48404;BME280;34202;52.536;6.042;2023-05-25T19:59:31;103073.41;;;11.20;73.33
48404;BME280;34202;52.536;6.042;2023-05-25T20:04:31;103087.37;;;11.08;73.81
48404;BME280;34202;52.536;6.042;2023-05-25T20:09:33;103096.77;;;10.95;74.29
48404;BME280;34202;52.536;6.042;2023-05-25T20:14:34;103096.88;;;10.85;74.81
48404;BME280;34202;52.536;6.042;2023-05-25T20:19:35;103096.79;;;10.74;75.26
48404;BME280;34202;52.536;6.042;2023-05-25T20:24:35;103103.58;;;10.66;75.89
48404;BME280;34202;52.536;6.042;2023-05-25T20:29:35;103101.36;;;10.58;76.34
48404;BME280;34202;52.536;6.042;2023-05-25T20:34:36;103102.39;;;10.50;76.81
48404;BME280;34202;52.536;6.042;2023-05-25T20:39:36;103112.31;;;10.42;77.36
48404;BME280;34202;52.536;6.042;2023-05-25T20:44:37;103121.13;;;10.33;77.65
48404;BME280;34202;52.536;6.042;2023-05-25T20:49:37;103125.62;;;10.25;78.02
48404;BME280;34202;52.536;6.042;2023-05-25T20:54:38;103132.21;;;10.16;78.33
48404;BME280;34202;52.536;6.042;2023-05-25T20:59:43;103134.36;;;10.06;78.87
48404;BME280;34202;52.536;6.042;2023-05-25T21:04:44;103135.19;;;9.98;79.26
48404;BME280;34202;52.536;6.042;2023-05-25T21:09:44;103134.35;;;9.91;79.50
48404;BME280;34202;52.536;6.042;2023-05-25T21:14:45;103134.13;;;9.82;79.87
48404;BME280;34202;52.536;6.042;2023-05-25T21:19:45;103132.11;;;9.76;80.19
48404;BME280;34202;52.536;6.042;2023-05-25T21:24:48;103135.95;;;9.69;80.49
48404;BME280;34202;52.536;6.042;2023-05-25T21:29:49;103132.92;;;9.60;80.90
48404;BME280;34202;52.536;6.042;2023-05-25T21:34:49;103134.78;;;9.52;81.39
48404;BME280;34202;52.536;6.042;2023-05-25T21:39:49;103135.73;;;9.42;81.76
48404;BME280;34202;52.536;6.042;2023-05-25T21:44:50;103134.01;;;9.35;82.33
48404;BME280;34202;52.536;6.042;2023-05-25T21:49:51;103136.78;;;9.28;82.79
48404;BME280;34202;52.536;6.042;2023-05-25T21:54:51;103140.85;;;9.22;83.05
48404;BME280;34202;52.536;6.042;2023-05-25T21:59:52;103141.81;;;9.17;83.42
48404;BME280;34202;52.536;6.042;2023-05-25T22:04:52;103143.46;;;9.12;83.78
48404;BME280;34202;52.536;6.042;2023-05-25T22:09:52;103146.23;;;9.04;83.94
48404;BME280;34202;52.536;6.042;2023-05-25T22:14:52;103141.02;;;8.98;84.28
48404;BME280;34202;52.536;6.042;2023-05-25T22:19:53;103135.50;;;8.92;84.70
48404;BME280;34202;52.536;6.042;2023-05-25T22:24:53;103144.91;;;8.85;84.64
48404;BME280;34202;52.536;6.042;2023-05-25T22:29:54;103142.76;;;8.77;85.12
48404;BME280;34202;52.536;6.042;2023-05-25T22:34:54;103138.84;;;8.71;85.51
48404;BME280;34202;52.536;6.042;2023-05-25T22:39:55;103137.81;;;8.65;85.59
48404;BME280;34202;52.536;6.042;2023-05-25T22:44:55;103135.95;;;8.60;86.09
48404;BME280;34202;52.536;6.042;2023-05-25T22:49:55;103135.24;;;8.56;86.47
48404;BME280;34202;52.536;6.042;2023-05-25T22:54:56;103135.70;;;8.51;86.63
48404;BME280;34202;52.536;6.042;2023-05-25T22:59:56;103133.89;;;8.46;86.65
48404;BME280;34202;52.536;6.042;2023-05-25T23:04:56;103132.02;;;8.41;87.02
48404;BME280;34202;52.536;6.042;2023-05-25T23:09:57;103133.11;;;8.35;87.40
48404;BME280;34202;52.536;6.042;2023-05-25T23:14:57;103134.27;;;8.28;87.46
48404;BME280;34202;52.536;6.042;2023-05-25T23:20:00;103135.88;;;8.22;87.59
48404;BME280;34202;52.536;6.042;2023-05-25T23:25:01;103142.22;;;8.14;87.99
48404;BME280;34202;52.536;6.042;2023-05-25T23:30:01;103137.73;;;8.08;88.30
48404;BME280;34202;52.536;6.042;2023-05-25T23:35:03;103139.83;;;8.02;88.69
48404;BME280;34202;52.536;6.042;2023-05-25T23:40:04;103133.65;;;7.96;88.91
48404;BME280;34202;52.536;6.042;2023-05-25T23:45:05;103135.41;;;7.90;89.29
48404;BME280;34202;52.536;6.042;2023-05-25T23:50:07;103138.80;;;7.83;89.52
48404;BME280;34202;52.536;6.042;2023-05-25T23:55:08;103137.61;;;7.77;89.75
